Kinnelon, New Jersey
Current Conditions -  °F | °C
As of 7:53 AM on Monday 24 Nov 2014 (Local Time) from KCDW Reporting Station
Overcast Overcast  
Wind Chill: 18°   Ceiling: 1400
Heat Index: 18°   Visibility: 10mi
Dew Point: 15°   Wind: 10mph
Humidity: 84%   Direction: 190°S
Pressure: 29.67"   Gusts: 21mph
Location:  40.9863°N, 74.383°W
Report Text: KCDW 241253Z AUTO 19009G18KT 10SM OVC014 18/15 A2967 RMK AO2 RAB1156E15 SLP053 P0002 T01780150 TSNO
Loading
Personal Weather Stations






























Interactive Weather Map New forecast layout! Learn more

10-Day Weather Forecast

Advertisements
Track Severe Weather on mobile